Willisville, Illinois
Current Conditions -  °F | °C
As of 3:55 PM on Saturday 25 Oct 2014 (Local Time) from KSAR Reporting Station
Clear Clear  
Wind Chill: 79°   Ceiling: Unl
Heat Index: 79°   Visibility: 10mi
Dew Point: 56°   Wind: 5mph
Humidity: 45%   Direction: 340°NNW
Pressure: 30.01"   Gusts: NA
Location:  37.98°N, 89.59°W
Report Text: KSAR 252055Z AUTO 34004KT 10SM CLR 26/13 A3001 RMK AO2 T02600132
Loading
Personal Weather Stations






























Interactive Weather Map
Tropical Storm Tracking
New forecast layout! Learn more

10-Day Weather Forecast

Advertisements
Track Severe Weather on mobile